KPKB/PKB METAR and TAF weather

Enter ICAO airport designator
Station Type Date Time Source
KPKB METAR 2020/09/20 14:53 UTC NOAA

KPKB 201453Z 07004KT 10SM CLR 14/05 A3046 RMK AO2 SLP315 T01440050 51014


Station Type Date Time Source
KPKB Decoded METAR 2020/09/20 14:53 UTC NOAA

MID-OHIO VALLEY RGNL AIRPORT, WV, United States (KPKB) 39-20N 81-27W
Sep 20, 2020 - 10:53 AM EDT / 2020.09.20 1453 UTC
Wind: from the ENE (070 degrees) at 5 MPH (4 KT):0
Visibility: 10 mile(s):0
Sky conditions: clear
Temperature: 57.9 F (14.4 C)
Dew Point: 41.0 F (5.0 C)
Relative Humidity: 53%
Pressure (altimeter): 30.46 in. Hg (1031 hPa)
Pressure tendency: 0.04 inches (1.4 hPa) higher than three hours ago
ob: KPKB 201453Z 07004KT 10SM CLR 14/05 A3046 RMK AO2 SLP315 T01440050 51014
cycle: 15

Station Type Date Time Source
KPKB TAF 2020/09/20 15:58 UTC NOAA

TAF
AMD KPKB 201458Z 2015/2112 07006KT P6SM SKC
FM210800 VRB03KT P6SM SKC

Example: see airport list